sensor_id;sensor_type;location;lat;lon;timestamp;P1;durP1;ratioP1;P2;durP2;ratioP2
21769;SDS011;11046;49.558;8.674;2023-07-22T00:02:30;3.70;;;2.47;;
21769;SDS011;11046;49.558;8.674;2023-07-22T00:05:30;2.80;;;2.42;;
21769;SDS011;11046;49.558;8.674;2023-07-22T00:08:31;4.65;;;2.78;;
21769;SDS011;11046;49.558;8.674;2023-07-22T00:11:32;4.13;;;2.88;;
21769;SDS011;11046;49.558;8.674;2023-07-22T00:14:35;3.95;;;2.67;;
21769;SDS011;11046;49.558;8.674;2023-07-22T00:17:39;3.53;;;2.60;;
21769;SDS011;11046;49.558;8.674;2023-07-22T00:20:41;5.13;;;2.90;;
21769;SDS011;11046;49.558;8.674;2023-07-22T00:23:41;3.72;;;2.70;;
21769;SDS011;11046;49.558;8.674;2023-07-22T00:26:42;2.88;;;2.42;;
21769;SDS011;11046;49.558;8.674;2023-07-22T00:29:42;3.88;;;2.88;;
21769;SDS011;11046;49.558;8.674;2023-07-22T00:32:43;3.10;;;2.80;;
21769;SDS011;11046;49.558;8.674;2023-07-22T00:35:47;3.58;;;2.70;;
21769;SDS011;11046;49.558;8.674;2023-07-22T00:38:50;6.70;;;2.70;;
21769;SDS011;11046;49.558;8.674;2023-07-22T00:41:52;3.75;;;2.50;;
21769;SDS011;11046;49.558;8.674;2023-07-22T00:44:53;3.08;;;2.50;;
21769;SDS011;11046;49.558;8.674;2023-07-22T00:47:53;2.97;;;2.72;;
21769;SDS011;11046;49.558;8.674;2023-07-22T00:50:54;3.17;;;2.70;;
21769;SDS011;11046;49.558;8.674;2023-07-22T00:53:54;3.13;;;2.70;;
21769;SDS011;11046;49.558;8.674;2023-07-22T00:56:56;4.03;;;2.55;;
21769;SDS011;11046;49.558;8.674;2023-07-22T00:59:57;3.92;;;2.67;;
21769;SDS011;11046;49.558;8.674;2023-07-22T01:02:58;3.13;;;2.35;;
21769;SDS011;11046;49.558;8.674;2023-07-22T01:05:59;3.17;;;2.70;;
21769;SDS011;11046;49.558;8.674;2023-07-22T01:09:00;3.55;;;2.63;;
21769;SDS011;11046;49.558;8.674;2023-07-22T01:12:01;3.85;;;2.85;;
21769;SDS011;11046;49.558;8.674;2023-07-22T01:15:02;4.28;;;2.78;;
21769;SDS011;11046;49.558;8.674;2023-07-22T01:18:07;3.05;;;2.42;;
21769;SDS011;11046;49.558;8.674;2023-07-22T01:21:08;4.20;;;2.83;;
21769;SDS011;11046;49.558;8.674;2023-07-22T01:24:09;4.88;;;2.78;;
21769;SDS011;11046;49.558;8.674;2023-07-22T01:27:11;3.33;;;2.63;;
21769;SDS011;11046;49.558;8.674;2023-07-22T01:30:14;5.20;;;2.75;;
21769;SDS011;11046;49.558;8.674;2023-07-22T01:33:14;3.60;;;3.08;;
21769;SDS011;11046;49.558;8.674;2023-07-22T01:36:15;3.25;;;2.90;;
21769;SDS011;11046;49.558;8.674;2023-07-22T01:39:16;3.25;;;2.60;;
21769;SDS011;11046;49.558;8.674;2023-07-22T01:42:17;4.00;;;3.10;;
21769;SDS011;11046;49.558;8.674;2023-07-22T01:45:18;4.95;;;3.15;;
21769;SDS011;11046;49.558;8.674;2023-07-22T01:48:18;4.45;;;3.00;;
21769;SDS011;11046;49.558;8.674;2023-07-22T01:51:19;4.70;;;2.80;;
21769;SDS011;11046;49.558;8.674;2023-07-22T01:54:19;5.57;;;2.65;;
21769;SDS011;11046;49.558;8.674;2023-07-22T01:57:20;3.70;;;2.72;;
21769;SDS011;11046;49.558;8.674;2023-07-22T02:00:21;3.38;;;2.80;;
21769;SDS011;11046;49.558;8.674;2023-07-22T02:03:21;4.80;;;2.97;;
21769;SDS011;11046;49.558;8.674;2023-07-22T02:06:22;3.95;;;2.92;;
21769;SDS011;11046;49.558;8.674;2023-07-22T02:09:23;3.55;;;2.70;;
21769;SDS011;11046;49.558;8.674;2023-07-22T02:12:23;4.50;;;2.63;;
21769;SDS011;11046;49.558;8.674;2023-07-22T02:15:24;5.20;;;2.70;;
21769;SDS011;11046;49.558;8.674;2023-07-22T02:18:25;5.50;;;3.10;;
21769;SDS011;11046;49.558;8.674;2023-07-22T02:21:25;3.22;;;2.70;;
21769;SDS011;11046;49.558;8.674;2023-07-22T02:24:26;4.82;;;3.15;;
21769;SDS011;11046;49.558;8.674;2023-07-22T02:27:26;3.40;;;2.83;;
21769;SDS011;11046;49.558;8.674;2023-07-22T02:30:27;5.18;;;2.85;;
21769;SDS011;11046;49.558;8.674;2023-07-22T02:33:28;5.03;;;2.78;;
21769;SDS011;11046;49.558;8.674;2023-07-22T02:36:28;5.13;;;3.10;;
21769;SDS011;11046;49.558;8.674;2023-07-22T02:39:29;5.55;;;2.97;;
21769;SDS011;11046;49.558;8.674;2023-07-22T02:42:29;3.55;;;3.00;;
21769;SDS011;11046;49.558;8.674;2023-07-22T02:45:30;5.05;;;3.03;;
21769;SDS011;11046;49.558;8.674;2023-07-22T02:48:31;5.78;;;3.33;;
21769;SDS011;11046;49.558;8.674;2023-07-22T02:51:31;4.25;;;3.15;;
21769;SDS011;11046;49.558;8.674;2023-07-22T02:54:39;4.10;;;3.25;;
21769;SDS011;11046;49.558;8.674;2023-07-22T02:57:41;4.25;;;3.45;;
21769;SDS011;11046;49.558;8.674;2023-07-22T03:00:42;4.75;;;3.60;;
21769;SDS011;11046;49.558;8.674;2023-07-22T03:03:43;4.68;;;3.65;;
21769;SDS011;11046;49.558;8.674;2023-07-22T03:06:43;7.60;;;3.88;;
21769;SDS011;11046;49.558;8.674;2023-07-22T03:09:45;4.80;;;3.58;;
21769;SDS011;11046;49.558;8.674;2023-07-22T03:12:45;4.97;;;3.72;;
21769;SDS011;11046;49.558;8.674;2023-07-22T03:15:47;6.50;;;4.00;;
21769;SDS011;11046;49.558;8.674;2023-07-22T03:18:47;5.40;;;4.03;;
21769;SDS011;11046;49.558;8.674;2023-07-22T03:21:48;7.13;;;4.50;;
21769;SDS011;11046;49.558;8.674;2023-07-22T03:24:49;4.95;;;4.00;;
21769;SDS011;11046;49.558;8.674;2023-07-22T03:27:49;5.72;;;4.70;;
21769;SDS011;11046;49.558;8.674;2023-07-22T03:30:50;4.68;;;3.88;;
21769;SDS011;11046;49.558;8.674;2023-07-22T03:33:51;4.88;;;3.92;;
21769;SDS011;11046;49.558;8.674;2023-07-22T03:36:52;4.70;;;4.30;;
21769;SDS011;11046;49.558;8.674;2023-07-22T03:39:52;5.72;;;4.43;;
21769;SDS011;11046;49.558;8.674;2023-07-22T03:42:54;6.03;;;3.95;;
21769;SDS011;11046;49.558;8.674;2023-07-22T03:45:56;5.38;;;4.35;;
21769;SDS011;11046;49.558;8.674;2023-07-22T03:48:56;6.45;;;4.50;;
21769;SDS011;11046;49.558;8.674;2023-07-22T03:51:57;6.80;;;4.28;;
21769;SDS011;11046;49.558;8.674;2023-07-22T03:54:57;6.70;;;4.50;;
21769;SDS011;11046;49.558;8.674;2023-07-22T03:57:58;5.88;;;4.20;;
21769;SDS011;11046;49.558;8.674;2023-07-22T04:00:59;5.75;;;4.43;;
21769;SDS011;11046;49.558;8.674;2023-07-22T04:03:59;6.03;;;4.45;;
21769;SDS011;11046;49.558;8.674;2023-07-22T04:07:00;10.38;;;4.78;;
21769;SDS011;11046;49.558;8.674;2023-07-22T04:10:00;5.53;;;3.90;;
21769;SDS011;11046;49.558;8.674;2023-07-22T04:13:01;7.70;;;4.32;;
21769;SDS011;11046;49.558;8.674;2023-07-22T04:16:02;6.28;;;4.03;;
21769;SDS011;11046;49.558;8.674;2023-07-22T04:19:02;5.00;;;4.00;;
21769;SDS011;11046;49.558;8.674;2023-07-22T04:22:04;4.95;;;3.90;;
21769;SDS011;11046;49.558;8.674;2023-07-22T04:25:05;6.13;;;4.18;;
21769;SDS011;11046;49.558;8.674;2023-07-22T04:28:06;4.90;;;3.67;;
21769;SDS011;11046;49.558;8.674;2023-07-22T04:31:08;7.43;;;4.40;;
21769;SDS011;11046;49.558;8.674;2023-07-22T04:34:09;6.53;;;4.03;;
21769;SDS011;11046;49.558;8.674;2023-07-22T04:37:12;6.00;;;3.95;;
21769;SDS011;11046;49.558;8.674;2023-07-22T04:40:13;6.53;;;4.43;;
21769;SDS011;11046;49.558;8.674;2023-07-22T04:43:16;5.32;;;4.10;;
21769;SDS011;11046;49.558;8.674;2023-07-22T04:46:17;4.65;;;3.67;;
21769;SDS011;11046;49.558;8.674;2023-07-22T04:49:18;8.32;;;4.05;;
21769;SDS011;11046;49.558;8.674;2023-07-22T04:52:18;5.38;;;4.07;;
21769;SDS011;11046;49.558;8.674;2023-07-22T04:55:19;6.03;;;3.70;;
21769;SDS011;11046;49.558;8.674;2023-07-22T04:58:19;5.45;;;3.97;;
21769;SDS011;11046;49.558;8.674;2023-07-22T05:01:20;6.75;;;3.90;;
21769;SDS011;11046;49.558;8.674;2023-07-22T05:04:21;4.50;;;3.83;;
21769;SDS011;11046;49.558;8.674;2023-07-22T05:07:22;4.57;;;3.70;;
21769;SDS011;11046;49.558;8.674;2023-07-22T05:10:23;7.43;;;3.60;;
21769;SDS011;11046;49.558;8.674;2023-07-22T05:13:23;4.72;;;3.80;;
21769;SDS011;11046;49.558;8.674;2023-07-22T05:16:24;5.50;;;3.70;;
21769;SDS011;11046;49.558;8.674;2023-07-22T05:19:24;5.68;;;4.00;;
21769;SDS011;11046;49.558;8.674;2023-07-22T05:22:25;6.30;;;3.88;;
21769;SDS011;11046;49.558;8.674;2023-07-22T05:25:26;4.57;;;3.75;;
21769;SDS011;11046;49.558;8.674;2023-07-22T05:28:26;7.82;;;4.22;;
21769;SDS011;11046;49.558;8.674;2023-07-22T05:31:27;8.18;;;3.97;;
21769;SDS011;11046;49.558;8.674;2023-07-22T05:34:27;7.22;;;3.70;;
21769;SDS011;11046;49.558;8.674;2023-07-22T05:37:28;5.57;;;3.50;;
21769;SDS011;11046;49.558;8.674;2023-07-22T05:40:29;4.78;;;3.42;;
21769;SDS011;11046;49.558;8.674;2023-07-22T05:43:30;5.78;;;3.30;;
21769;SDS011;11046;49.558;8.674;2023-07-22T05:46:30;4.05;;;3.30;;
21769;SDS011;11046;49.558;8.674;2023-07-22T05:49:31;5.88;;;3.20;;
21769;SDS011;11046;49.558;8.674;2023-07-22T05:52:31;4.40;;;3.20;;
21769;SDS011;11046;49.558;8.674;2023-07-22T05:55:32;5.68;;;3.67;;
21769;SDS011;11046;49.558;8.674;2023-07-22T05:58:34;5.90;;;3.78;;
21769;SDS011;11046;49.558;8.674;2023-07-22T06:01:35;4.28;;;3.50;;
21769;SDS011;11046;49.558;8.674;2023-07-22T06:04:35;6.65;;;3.58;;
21769;SDS011;11046;49.558;8.674;2023-07-22T06:07:36;7.53;;;3.50;;
21769;SDS011;11046;49.558;8.674;2023-07-22T06:10:37;4.05;;;3.30;;
21769;SDS011;11046;49.558;8.674;2023-07-22T06:13:38;4.45;;;3.60;;
21769;SDS011;11046;49.558;8.674;2023-07-22T06:16:38;4.43;;;3.10;;
21769;SDS011;11046;49.558;8.674;2023-07-22T06:19:39;3.65;;;3.15;;
21769;SDS011;11046;49.558;8.674;2023-07-22T06:22:39;4.03;;;3.28;;
21769;SDS011;11046;49.558;8.674;2023-07-22T06:25:40;4.45;;;3.47;;
21769;SDS011;11046;49.558;8.674;2023-07-22T06:28:41;5.72;;;2.95;;
21769;SDS011;11046;49.558;8.674;2023-07-22T06:31:42;5.43;;;3.47;;
21769;SDS011;11046;49.558;8.674;2023-07-22T06:34:42;6.55;;;3.40;;
21769;SDS011;11046;49.558;8.674;2023-07-22T06:37:43;4.78;;;3.60;;
21769;SDS011;11046;49.558;8.674;2023-07-22T06:40:44;6.22;;;3.50;;
21769;SDS011;11046;49.558;8.674;2023-07-22T06:43:44;4.60;;;3.50;;
21769;SDS011;11046;49.558;8.674;2023-07-22T06:46:45;5.85;;;3.67;;
21769;SDS011;11046;49.558;8.674;2023-07-22T06:49:46;4.15;;;3.53;;
21769;SDS011;11046;49.558;8.674;2023-07-22T06:52:47;5.82;;;3.40;;
21769;SDS011;11046;49.558;8.674;2023-07-22T06:55:48;4.35;;;3.20;;
21769;SDS011;11046;49.558;8.674;2023-07-22T06:58:50;5.35;;;3.45;;
21769;SDS011;11046;49.558;8.674;2023-07-22T07:01:51;6.38;;;3.55;;
21769;SDS011;11046;49.558;8.674;2023-07-22T07:04:52;7.60;;;3.08;;
21769;SDS011;11046;49.558;8.674;2023-07-22T07:07:52;7.65;;;3.92;;
21769;SDS011;11046;49.558;8.674;2023-07-22T07:10:53;4.30;;;3.30;;
21769;SDS011;11046;49.558;8.674;2023-07-22T07:13:53;4.63;;;3.28;;
21769;SDS011;11046;49.558;8.674;2023-07-22T07:16:54;5.40;;;3.83;;
21769;SDS011;11046;49.558;8.674;2023-07-22T07:19:55;3.95;;;3.00;;
21769;SDS011;11046;49.558;8.674;2023-07-22T07:22:55;4.88;;;2.95;;
21769;SDS011;11046;49.558;8.674;2023-07-22T07:25:56;6.20;;;3.38;;
21769;SDS011;11046;49.558;8.674;2023-07-22T07:28:56;5.38;;;3.25;;
21769;SDS011;11046;49.558;8.674;2023-07-22T07:31:57;4.65;;;3.00;;
21769;SDS011;11046;49.558;8.674;2023-07-22T07:34:57;4.32;;;2.97;;
21769;SDS011;11046;49.558;8.674;2023-07-22T07:37:58;6.38;;;3.50;;
21769;SDS011;11046;49.558;8.674;2023-07-22T07:41:00;5.18;;;3.10;;
21769;SDS011;11046;49.558;8.674;2023-07-22T07:44:03;3.60;;;2.85;;
21769;SDS011;11046;49.558;8.674;2023-07-22T07:47:04;4.90;;;2.88;;
21769;SDS011;11046;49.558;8.674;2023-07-22T07:50:05;4.00;;;2.88;;
21769;SDS011;11046;49.558;8.674;2023-07-22T07:53:06;4.13;;;3.35;;
21769;SDS011;11046;49.558;8.674;2023-07-22T07:56:07;3.92;;;2.92;;
21769;SDS011;11046;49.558;8.674;2023-07-22T07:59:08;3.85;;;3.08;;
21769;SDS011;11046;49.558;8.674;2023-07-22T08:02:09;6.90;;;3.30;;
21769;SDS011;11046;49.558;8.674;2023-07-22T08:05:10;4.97;;;2.65;;
21769;SDS011;11046;49.558;8.674;2023-07-22T08:08:12;2.88;;;2.17;;
21769;SDS011;11046;49.558;8.674;2023-07-22T08:11:13;7.03;;;2.83;;
21769;SDS011;11046;49.558;8.674;2023-07-22T08:14:14;4.80;;;2.33;;
21769;SDS011;11046;49.558;8.674;2023-07-22T08:17:15;3.85;;;2.47;;
21769;SDS011;11046;49.558;8.674;2023-07-22T08:20:15;3.10;;;2.45;;
21769;SDS011;11046;49.558;8.674;2023-07-22T08:23:16;4.55;;;2.60;;
21769;SDS011;11046;49.558;8.674;2023-07-22T08:26:17;5.45;;;2.90;;
21769;SDS011;11046;49.558;8.674;2023-07-22T08:29:20;3.53;;;2.53;;
21769;SDS011;11046;49.558;8.674;2023-07-22T08:32:24;7.47;;;2.63;;
21769;SDS011;11046;49.558;8.674;2023-07-22T08:35:25;5.22;;;2.45;;
21769;SDS011;11046;49.558;8.674;2023-07-22T08:38:26;3.30;;;2.08;;
21769;SDS011;11046;49.558;8.674;2023-07-22T08:41:27;3.15;;;2.47;;
21769;SDS011;11046;49.558;8.674;2023-07-22T08:44:30;2.95;;;2.22;;
21769;SDS011;11046;49.558;8.674;2023-07-22T08:47:37;4.00;;;2.35;;
21769;SDS011;11046;49.558;8.674;2023-07-22T08:50:44;4.72;;;2.70;;
21769;SDS011;11046;49.558;8.674;2023-07-22T08:54:08;5.22;;;2.40;;
21769;SDS011;11046;49.558;8.674;2023-07-22T08:57:10;3.40;;;2.00;;
21769;SDS011;11046;49.558;8.674;2023-07-22T09:00:11;4.43;;;2.30;;
21769;SDS011;11046;49.558;8.674;2023-07-22T09:03:13;4.60;;;2.63;;
21769;SDS011;11046;49.558;8.674;2023-07-22T09:06:14;3.33;;;2.40;;
21769;SDS011;11046;49.558;8.674;2023-07-22T09:09:15;4.18;;;2.15;;
21769;SDS011;11046;49.558;8.674;2023-07-22T09:12:15;7.32;;;2.88;;
21769;SDS011;11046;49.558;8.674;2023-07-22T09:15:17;3.63;;;2.30;;
21769;SDS011;11046;49.558;8.674;2023-07-22T09:18:19;3.08;;;2.30;;
21769;SDS011;11046;49.558;8.674;2023-07-22T09:21:19;4.78;;;2.10;;
21769;SDS011;11046;49.558;8.674;2023-07-22T09:24:23;4.80;;;2.45;;
21769;SDS011;11046;49.558;8.674;2023-07-22T09:27:32;2.90;;;2.25;;
21769;SDS011;11046;49.558;8.674;2023-07-22T09:30:34;4.70;;;2.33;;
21769;SDS011;11046;49.558;8.674;2023-07-22T09:33:36;5.88;;;2.35;;
21769;SDS011;11046;49.558;8.674;2023-07-22T09:36:56;2.42;;;2.05;;
21769;SDS011;11046;49.558;8.674;2023-07-22T09:39:58;2.45;;;2.00;;
21769;SDS011;11046;49.558;8.674;2023-07-22T09:43:00;3.58;;;2.45;;
21769;SDS011;11046;49.558;8.674;2023-07-22T09:46:09;3.55;;;2.20;;
21769;SDS011;11046;49.558;8.674;2023-07-22T09:49:11;4.13;;;1.88;;
21769;SDS011;11046;49.558;8.674;2023-07-22T09:52:12;2.28;;;2.08;;
21769;SDS011;11046;49.558;8.674;2023-07-22T09:55:16;3.42;;;2.60;;
21769;SDS011;11046;49.558;8.674;2023-07-22T09:58:19;3.67;;;2.15;;
21769;SDS011;11046;49.558;8.674;2023-07-22T10:01:20;5.75;;;2.20;;
21769;SDS011;11046;49.558;8.674;2023-07-22T10:04:24;4.03;;;2.20;;
21769;SDS011;11046;49.558;8.674;2023-07-22T10:07:28;2.88;;;2.30;;
21769;SDS011;11046;49.558;8.674;2023-07-22T10:10:34;5.05;;;2.40;;
21769;SDS011;11046;49.558;8.674;2023-07-22T10:13:37;4.25;;;2.20;;
21769;SDS011;11046;49.558;8.674;2023-07-22T10:16:39;3.80;;;2.08;;
21769;SDS011;11046;49.558;8.674;2023-07-22T10:19:41;3.15;;;2.15;;
21769;SDS011;11046;49.558;8.674;2023-07-22T10:22:43;4.30;;;2.05;;
21769;SDS011;11046;49.558;8.674;2023-07-22T10:25:44;4.38;;;2.30;;
21769;SDS011;11046;49.558;8.674;2023-07-22T10:28:47;4.10;;;2.25;;
21769;SDS011;11046;49.558;8.674;2023-07-22T10:31:48;6.82;;;2.65;;
21769;SDS011;11046;49.558;8.674;2023-07-22T10:34:53;5.28;;;2.78;;
21769;SDS011;11046;49.558;8.674;2023-07-22T10:37:53;3.42;;;2.15;;
21769;SDS011;11046;49.558;8.674;2023-07-22T10:40:54;3.75;;;2.28;;
21769;SDS011;11046;49.558;8.674;2023-07-22T10:43:56;3.95;;;2.33;;
21769;SDS011;11046;49.558;8.674;2023-07-22T10:46:58;5.25;;;2.42;;
21769;SDS011;11046;49.558;8.674;2023-07-22T10:50:05;4.85;;;2.58;;
21769;SDS011;11046;49.558;8.674;2023-07-22T10:53:10;5.10;;;2.47;;
21769;SDS011;11046;49.558;8.674;2023-07-22T10:56:20;2.72;;;2.47;;
21769;SDS011;11046;49.558;8.674;2023-07-22T10:59:26;4.32;;;2.50;;
21769;SDS011;11046;49.558;8.674;2023-07-22T11:02:30;3.35;;;2.55;;
21769;SDS011;11046;49.558;8.674;2023-07-22T11:05:46;3.33;;;2.40;;
21769;SDS011;11046;49.558;8.674;2023-07-22T11:08:51;4.40;;;2.70;;
21769;SDS011;11046;49.558;8.674;2023-07-22T11:11:51;4.47;;;2.70;;
21769;SDS011;11046;49.558;8.674;2023-07-22T11:15:03;8.05;;;3.00;;
21769;SDS011;11046;49.558;8.674;2023-07-22T11:18:06;4.55;;;2.50;;
21769;SDS011;11046;49.558;8.674;2023-07-22T11:21:07;5.43;;;2.40;;
21769;SDS011;11046;49.558;8.674;2023-07-22T11:24:12;4.40;;;2.78;;
21769;SDS011;11046;49.558;8.674;2023-07-22T11:27:13;4.78;;;2.80;;
21769;SDS011;11046;49.558;8.674;2023-07-22T11:30:13;4.47;;;2.35;;
21769;SDS011;11046;49.558;8.674;2023-07-22T11:33:14;5.55;;;2.60;;
21769;SDS011;11046;49.558;8.674;2023-07-22T11:36:14;5.85;;;2.53;;
21769;SDS011;11046;49.558;8.674;2023-07-22T11:39:16;4.03;;;2.55;;
21769;SDS011;11046;49.558;8.674;2023-07-22T11:42:17;4.90;;;2.33;;
21769;SDS011;11046;49.558;8.674;2023-07-22T11:45:18;5.45;;;2.80;;
21769;SDS011;11046;49.558;8.674;2023-07-22T11:48:19;2.10;;;1.90;;
21769;SDS011;11046;49.558;8.674;2023-07-22T11:51:20;4.40;;;2.85;;
21769;SDS011;11046;49.558;8.674;2023-07-22T11:54:21;4.60;;;2.53;;
21769;SDS011;11046;49.558;8.674;2023-07-22T11:57:23;3.72;;;2.53;;
21769;SDS011;11046;49.558;8.674;2023-07-22T12:00:24;4.07;;;2.25;;
21769;SDS011;11046;49.558;8.674;2023-07-22T12:03:24;4.22;;;2.63;;
21769;SDS011;11046;49.558;8.674;2023-07-22T12:06:25;2.33;;;2.05;;
21769;SDS011;11046;49.558;8.674;2023-07-22T12:09:27;2.42;;;2.00;;
21769;SDS011;11046;49.558;8.674;2023-07-22T12:15:40;2.78;;;2.25;;
21769;SDS011;11046;49.558;8.674;2023-07-22T12:18:41;3.63;;;2.25;;
21769;SDS011;11046;49.558;8.674;2023-07-22T12:21:45;3.72;;;2.03;;
21769;SDS011;11046;49.558;8.674;2023-07-22T12:24:48;3.00;;;2.08;;
21769;SDS011;11046;49.558;8.674;2023-07-22T12:27:49;2.67;;;2.00;;
21769;SDS011;11046;49.558;8.674;2023-07-22T12:30:50;4.22;;;2.00;;
21769;SDS011;11046;49.558;8.674;2023-07-22T12:33:50;2.50;;;1.95;;
21769;SDS011;11046;49.558;8.674;2023-07-22T12:36:51;5.30;;;2.08;;
21769;SDS011;11046;49.558;8.674;2023-07-22T12:39:52;4.07;;;2.47;;
21769;SDS011;11046;49.558;8.674;2023-07-22T12:42:52;3.50;;;2.33;;
21769;SDS011;11046;49.558;8.674;2023-07-22T12:45:53;2.70;;;2.08;;
21769;SDS011;11046;49.558;8.674;2023-07-22T12:48:53;4.63;;;2.30;;
21769;SDS011;11046;49.558;8.674;2023-07-22T12:51:54;5.10;;;2.10;;
21769;SDS011;11046;49.558;8.674;2023-07-22T12:54:54;3.50;;;2.53;;
21769;SDS011;11046;49.558;8.674;2023-07-22T12:57:55;5.90;;;2.30;;
21769;SDS011;11046;49.558;8.674;2023-07-22T13:00:56;2.97;;;2.10;;
21769;SDS011;11046;49.558;8.674;2023-07-22T13:03:56;2.30;;;1.90;;
21769;SDS011;11046;49.558;8.674;2023-07-22T13:06:57;5.90;;;2.00;;
21769;SDS011;11046;49.558;8.674;2023-07-22T13:09:58;3.67;;;1.95;;
21769;SDS011;11046;49.558;8.674;2023-07-22T13:13:01;3.40;;;2.00;;
21769;SDS011;11046;49.558;8.674;2023-07-22T13:16:02;3.53;;;1.92;;
21769;SDS011;11046;49.558;8.674;2023-07-22T13:19:02;3.25;;;2.00;;
21769;SDS011;11046;49.558;8.674;2023-07-22T13:22:03;4.00;;;2.10;;
21769;SDS011;11046;49.558;8.674;2023-07-22T13:25:13;3.42;;;2.13;;
21769;SDS011;11046;49.558;8.674;2023-07-22T13:28:14;2.50;;;2.13;;
21769;SDS011;11046;49.558;8.674;2023-07-22T13:31:15;3.85;;;2.30;;
21769;SDS011;11046;49.558;8.674;2023-07-22T13:34:15;3.20;;;2.30;;
21769;SDS011;11046;49.558;8.674;2023-07-22T13:37:16;7.07;;;2.45;;
21769;SDS011;11046;49.558;8.674;2023-07-22T13:40:16;3.80;;;2.50;;
21769;SDS011;11046;49.558;8.674;2023-07-22T13:43:17;4.13;;;2.58;;
21769;SDS011;11046;49.558;8.674;2023-07-22T13:46:19;3.72;;;2.30;;
21769;SDS011;11046;49.558;8.674;2023-07-22T13:49:20;5.57;;;2.58;;
21769;SDS011;11046;49.558;8.674;2023-07-22T13:52:20;7.35;;;2.22;;
21769;SDS011;11046;49.558;8.674;2023-07-22T13:55:21;6.38;;;3.05;;
21769;SDS011;11046;49.558;8.674;2023-07-22T13:58:22;3.78;;;2.47;;
21769;SDS011;11046;49.558;8.674;2023-07-22T14:01:22;5.75;;;2.55;;
21769;SDS011;11046;49.558;8.674;2023-07-22T14:04:23;6.68;;;2.35;;
21769;SDS011;11046;49.558;8.674;2023-07-22T14:07:23;5.78;;;2.60;;
21769;SDS011;11046;49.558;8.674;2023-07-22T14:10:24;4.20;;;2.30;;
21769;SDS011;11046;49.558;8.674;2023-07-22T14:13:25;2.70;;;2.20;;
21769;SDS011;11046;49.558;8.674;2023-07-22T14:16:25;4.22;;;2.33;;
21769;SDS011;11046;49.558;8.674;2023-07-22T14:19:26;6.75;;;2.92;;
21769;SDS011;11046;49.558;8.674;2023-07-22T14:22:28;2.97;;;2.22;;
21769;SDS011;11046;49.558;8.674;2023-07-22T14:25:28;5.00;;;2.72;;
21769;SDS011;11046;49.558;8.674;2023-07-22T14:28:29;2.90;;;2.25;;
21769;SDS011;11046;49.558;8.674;2023-07-22T14:31:29;3.20;;;2.40;;
21769;SDS011;11046;49.558;8.674;2023-07-22T14:34:30;3.00;;;2.30;;
21769;SDS011;11046;49.558;8.674;2023-07-22T14:37:31;3.45;;;2.30;;
21769;SDS011;11046;49.558;8.674;2023-07-22T14:40:32;4.32;;;2.50;;
21769;SDS011;11046;49.558;8.674;2023-07-22T14:43:32;6.00;;;2.83;;
21769;SDS011;11046;49.558;8.674;2023-07-22T14:46:33;6.15;;;3.28;;
21769;SDS011;11046;49.558;8.674;2023-07-22T14:49:33;2.88;;;2.35;;
21769;SDS011;11046;49.558;8.674;2023-07-22T14:52:34;3.20;;;2.40;;
21769;SDS011;11046;49.558;8.674;2023-07-22T14:55:34;5.70;;;2.85;;
21769;SDS011;11046;49.558;8.674;2023-07-22T14:58:35;5.45;;;2.30;;
21769;SDS011;11046;49.558;8.674;2023-07-22T15:01:36;6.50;;;2.70;;
21769;SDS011;11046;49.558;8.674;2023-07-22T15:04:39;4.72;;;2.22;;
21769;SDS011;11046;49.558;8.674;2023-07-22T15:07:40;4.20;;;2.85;;
21769;SDS011;11046;49.558;8.674;2023-07-22T15:10:41;5.32;;;2.22;;
21769;SDS011;11046;49.558;8.674;2023-07-22T15:13:41;4.88;;;3.25;;
21769;SDS011;11046;49.558;8.674;2023-07-22T15:16:42;5.10;;;2.83;;
21769;SDS011;11046;49.558;8.674;2023-07-22T15:19:42;4.28;;;2.90;;
21769;SDS011;11046;49.558;8.674;2023-07-22T15:22:43;6.05;;;2.60;;
21769;SDS011;11046;49.558;8.674;2023-07-22T15:25:43;4.07;;;2.75;;
21769;SDS011;11046;49.558;8.674;2023-07-22T15:28:44;7.18;;;2.90;;
21769;SDS011;11046;49.558;8.674;2023-07-22T15:31:48;7.50;;;2.40;;
21769;SDS011;11046;49.558;8.674;2023-07-22T15:34:48;4.53;;;2.42;;
21769;SDS011;11046;49.558;8.674;2023-07-22T15:37:55;7.50;;;2.17;;
21769;SDS011;11046;49.558;8.674;2023-07-22T15:40:56;12.02;;;2.78;;
21769;SDS011;11046;49.558;8.674;2023-07-22T15:43:56;8.07;;;3.00;;
21769;SDS011;11046;49.558;8.674;2023-07-22T15:46:57;4.88;;;2.95;;
21769;SDS011;11046;49.558;8.674;2023-07-22T15:49:57;3.47;;;2.58;;
21769;SDS011;11046;49.558;8.674;2023-07-22T15:52:58;10.07;;;3.05;;
21769;SDS011;11046;49.558;8.674;2023-07-22T15:56:01;3.22;;;2.60;;
21769;SDS011;11046;49.558;8.674;2023-07-22T15:59:02;5.55;;;3.20;;
21769;SDS011;11046;49.558;8.674;2023-07-22T16:02:03;10.45;;;2.60;;
21769;SDS011;11046;49.558;8.674;2023-07-22T16:05:04;6.45;;;2.75;;
21769;SDS011;11046;49.558;8.674;2023-07-22T16:08:05;6.00;;;2.85;;
21769;SDS011;11046;49.558;8.674;2023-07-22T16:11:05;8.40;;;3.28;;
21769;SDS011;11046;49.558;8.674;2023-07-22T16:14:06;8.73;;;3.10;;
21769;SDS011;11046;49.558;8.674;2023-07-22T16:17:07;4.72;;;2.92;;
21769;SDS011;11046;49.558;8.674;2023-07-22T16:20:08;4.05;;;2.55;;
21769;SDS011;11046;49.558;8.674;2023-07-22T16:23:10;5.15;;;3.08;;
21769;SDS011;11046;49.558;8.674;2023-07-22T16:26:10;4.78;;;2.78;;
21769;SDS011;11046;49.558;8.674;2023-07-22T16:29:11;5.53;;;2.90;;
21769;SDS011;11046;49.558;8.674;2023-07-22T16:32:11;5.82;;;2.95;;
21769;SDS011;11046;49.558;8.674;2023-07-22T16:35:12;7.15;;;2.88;;
21769;SDS011;11046;49.558;8.674;2023-07-22T16:38:13;6.47;;;3.33;;
21769;SDS011;11046;49.558;8.674;2023-07-22T16:41:14;5.75;;;3.10;;
21769;SDS011;11046;49.558;8.674;2023-07-22T16:44:14;9.52;;;3.03;;
21769;SDS011;11046;49.558;8.674;2023-07-22T16:47:17;6.28;;;3.25;;
21769;SDS011;11046;49.558;8.674;2023-07-22T16:50:18;4.20;;;2.92;;
21769;SDS011;11046;49.558;8.674;2023-07-22T16:53:18;4.22;;;3.13;;
21769;SDS011;11046;49.558;8.674;2023-07-22T16:56:19;4.13;;;3.15;;
21769;SDS011;11046;49.558;8.674;2023-07-22T16:59:19;6.10;;;3.03;;
21769;SDS011;11046;49.558;8.674;2023-07-22T17:02:20;7.20;;;3.30;;
21769;SDS011;11046;49.558;8.674;2023-07-22T17:05:20;5.40;;;3.25;;
21769;SDS011;11046;49.558;8.674;2023-07-22T17:08:21;5.25;;;3.60;;
21769;SDS011;11046;49.558;8.674;2023-07-22T17:11:22;4.72;;;3.08;;
21769;SDS011;11046;49.558;8.674;2023-07-22T17:14:22;7.60;;;4.65;;
21769;SDS011;11046;49.558;8.674;2023-07-22T17:17:23;6.97;;;4.45;;
21769;SDS011;11046;49.558;8.674;2023-07-22T17:20:23;6.97;;;4.50;;
21769;SDS011;11046;49.558;8.674;2023-07-22T17:23:24;5.03;;;3.50;;
21769;SDS011;11046;49.558;8.674;2023-07-22T17:26:25;6.22;;;3.95;;
21769;SDS011;11046;49.558;8.674;2023-07-22T17:29:26;4.90;;;3.15;;
21769;SDS011;11046;49.558;8.674;2023-07-22T17:32:26;6.30;;;3.15;;
21769;SDS011;11046;49.558;8.674;2023-07-22T17:35:27;5.85;;;3.20;;
21769;SDS011;11046;49.558;8.674;2023-07-22T17:38:27;5.85;;;3.58;;
21769;SDS011;11046;49.558;8.674;2023-07-22T17:41:28;6.88;;;3.67;;
21769;SDS011;11046;49.558;8.674;2023-07-22T17:44:28;6.00;;;3.85;;
21769;SDS011;11046;49.558;8.674;2023-07-22T17:47:29;6.25;;;3.75;;
21769;SDS011;11046;49.558;8.674;2023-07-22T17:50:29;7.63;;;3.38;;
21769;SDS011;11046;49.558;8.674;2023-07-22T17:53:30;5.95;;;4.50;;
21769;SDS011;11046;49.558;8.674;2023-07-22T17:56:31;8.30;;;3.20;;
21769;SDS011;11046;49.558;8.674;2023-07-22T17:59:35;4.50;;;3.00;;
21769;SDS011;11046;49.558;8.674;2023-07-22T18:02:36;5.15;;;3.40;;
21769;SDS011;11046;49.558;8.674;2023-07-22T18:05:38;6.22;;;3.17;;
21769;SDS011;11046;49.558;8.674;2023-07-22T18:08:44;4.47;;;2.88;;
21769;SDS011;11046;49.558;8.674;2023-07-22T18:11:45;4.53;;;3.20;;
21769;SDS011;11046;49.558;8.674;2023-07-22T18:14:47;4.63;;;2.78;;
21769;SDS011;11046;49.558;8.674;2023-07-22T18:17:48;7.18;;;3.63;;